Time;durP1;ratioP1;P1;durP2;ratioP2;P2;SDS_P1;SDS_P2;PMS_P1;PMS_P2;Temp;Humidity;BMP_temperature;BMP_pressure;BME280_temperature;BME280_humidity;BME280_pressure;Samples;Min_cycle;Max_cycle;Signal;HPM_P1;HPM_P2
2024/02/19 00:01:32;;;;;;;29.75;4.55;;;7.70;99.90;;;;;;5020822;28;20890;-70
2024/02/19 00:03:58;;;;;;;34.00;4.30;;;7.70;99.90;;;;;;5021095;28;20192;-72
2024/02/19 00:06:24;;;;;;;39.78;5.13;;;7.70;99.90;;;;;;5020838;28;20378;-70
2024/02/19 00:08:53;;;;;;;44.45;4.80;;;7.80;99.90;;;;;;5020752;28;20199;-69
2024/02/19 00:11:19;;;;;;;39.25;4.75;;;7.80;99.90;;;;;;5020423;28;20196;-70
2024/02/19 00:13:45;;;;;;;23.70;3.30;;;7.90;99.90;;;;;;5021056;28;20214;-71
2024/02/19 00:16:11;;;;;;;23.60;3.78;;;7.90;99.90;;;;;;5019071;28;20211;-70
2024/02/19 00:18:37;;;;;;;29.63;4.10;;;7.90;99.90;;;;;;5020954;28;20647;-71
2024/02/19 00:21:03;;;;;;;29.98;3.25;;;8.00;99.90;;;;;;5019772;28;20196;-71
2024/02/19 00:23:29;;;;;;;20.63;3.45;;;8.00;99.90;;;;;;5006424;28;20702;-72
2024/02/19 00:25:55;;;;;;;21.17;2.47;;;8.00;99.90;;;;;;5020808;28;20219;-73
2024/02/19 00:28:21;;;;;;;23.52;2.97;;;8.10;99.90;;;;;;5020855;28;20330;-70
2024/02/19 00:30:47;;;;;;;14.23;2.90;;;8.10;99.90;;;;;;5020443;28;20202;-71
2024/02/19 00:33:13;;;;;;;15.50;2.53;;;8.10;99.90;;;;;;5021046;28;20183;-71
2024/02/19 00:35:38;;;;;;;8.88;1.60;;;8.10;99.90;;;;;;5020359;28;20195;-70
2024/02/19 00:38:04;;;;;;;10.10;1.70;;;8.10;99.90;;;;;;5020290;28;20291;-71
2024/02/19 00:40:30;;;;;;;12.13;1.70;;;8.10;99.90;;;;;;5019966;28;20660;-72
2024/02/19 00:42:56;;;;;;;12.25;1.77;;;8.20;99.90;;;;;;5020200;28;20708;-70
2024/02/19 00:45:21;;;;;;;11.57;1.80;;;8.10;99.90;;;;;;5020652;28;20211;-71
2024/02/19 00:47:47;;;;;;;10.27;2.08;;;8.10;99.90;;;;;;5020327;28;20253;-71
2024/02/19 00:50:14;;;;;;;17.60;1.80;;;8.20;99.90;;;;;;5007074;28;20219;-70
2024/02/19 00:52:40;;;;;;;12.68;1.92;;;8.20;99.90;;;;;;5022481;28;20234;-70
2024/02/19 00:55:07;;;;;;;11.93;1.95;;;8.20;99.90;;;;;;5023973;28;20184;-73
2024/02/19 00:57:33;;;;;;;18.83;2.67;;;8.20;99.90;;;;;;5024233;28;20231;-71
2024/02/19 00:59:59;;;;;;;20.15;2.35;;;8.20;99.90;;;;;;5024444;28;20298;-71
2024/02/19 01:02:24;;;;;;;9.98;2.40;;;8.20;99.90;;;;;;5023898;28;20668;-68
2024/02/19 01:04:53;;;;;;;18.02;2.00;;;8.20;99.90;;;;;;5023511;28;20231;-71
2024/02/19 01:07:20;;;;;;;10.25;2.10;;;8.20;99.90;;;;;;5031526;28;20211;-70
2024/02/19 01:09:49;;;;;;;15.68;1.95;;;8.20;99.90;;;;;;5024414;28;21323;-69
2024/02/19 01:12:15;;;;;;;11.88;2.05;;;8.30;99.90;;;;;;5023514;28;20195;-70
2024/02/19 01:14:41;;;;;;;5.05;1.40;;;8.30;99.90;;;;;;5024314;28;20236;-69
2024/02/19 01:17:08;;;;;;;6.10;1.92;;;8.30;99.90;;;;;;5023273;28;20274;-72
2024/02/19 01:19:35;;;;;;;15.18;2.45;;;8.30;99.90;;;;;;5011202;28;20211;-70
2024/02/19 01:22:01;;;;;;;8.32;1.92;;;8.20;99.90;;;;;;5023326;28;20202;-70
2024/02/19 01:24:27;;;;;;;12.25;1.67;;;8.20;99.90;;;;;;5023706;28;20195;-70
2024/02/19 01:26:52;;;;;;;7.82;1.52;;;8.20;99.90;;;;;;5023413;28;21125;-70
2024/02/19 01:29:19;;;;;;;9.18;1.25;;;8.30;99.90;;;;;;5023423;28;20293;-70
2024/02/19 01:31:45;;;;;;;9.45;1.70;;;8.30;99.90;;;;;;5023105;28;20290;-70
2024/02/19 01:34:11;;;;;;;13.93;2.10;;;8.20;99.90;;;;;;5023628;28;20224;-71
2024/02/19 01:36:37;;;;;;;12.40;1.83;;;8.20;99.90;;;;;;5022700;28;20188;-71
2024/02/19 01:39:03;;;;;;;24.00;2.88;;;8.20;99.90;;;;;;5023700;28;20660;-69
2024/02/19 01:41:29;;;;;;;17.85;2.33;;;8.20;99.90;;;;;;5022829;28;20278;-72
2024/02/19 01:43:54;;;;;;;15.60;2.22;;;8.20;99.90;;;;;;5022068;28;20291;-68
2024/02/19 01:46:21;;;;;;;10.02;1.98;;;8.20;99.90;;;;;;5022741;28;20704;-70
2024/02/19 01:48:47;;;;;;;10.43;1.88;;;8.20;99.90;;;;;;5011202;28;20211;-69
2024/02/19 01:51:16;;;;;;;14.10;2.30;;;8.20;99.90;;;;;;5022417;28;21330;-69
2024/02/19 01:53:43;;;;;;;12.30;2.10;;;8.20;99.90;;;;;;5022577;28;20187;-70
2024/02/19 01:56:09;;;;;;;8.25;2.03;;;8.20;99.90;;;;;;5023119;28;20218;-70
2024/02/19 01:58:36;;;;;;;13.27;2.30;;;8.20;99.90;;;;;;5022895;28;20196;-70
2024/02/19 02:01:04;;;;;;;12.57;2.13;;;8.20;99.90;;;;;;5022120;28;20349;-70
2024/02/19 02:03:31;;;;;;;16.98;2.22;;;8.20;99.90;;;;;;5022798;28;20184;-69
2024/02/19 02:05:58;;;;;;;13.05;1.70;;;8.20;99.90;;;;;;5020563;28;20196;-71
2024/02/19 02:08:24;;;;;;;15.07;2.70;;;8.20;99.90;;;;;;5010476;28;20224;-69
2024/02/19 02:10:50;;;;;;;12.35;2.97;;;8.30;99.90;;;;;;5022757;28;20188;-69
2024/02/19 02:13:18;;;;;;;20.88;3.00;;;8.30;99.90;;;;;;5022277;28;20308;-69
2024/02/19 02:15:44;;;;;;;18.55;3.33;;;8.30;99.90;;;;;;5027090;28;20355;-69
2024/02/19 02:18:12;;;;;;;18.70;3.30;;;8.30;99.90;;;;;;5027860;28;20286;-69
2024/02/19 02:20:39;;;;;;;15.02;2.80;;;8.30;99.90;;;;;;5021594;28;20687;-69
2024/02/19 02:23:05;;;;;;;12.70;2.85;;;8.30;99.90;;;;;;5020753;28;20191;-72
2024/02/19 02:25:33;;;;;;;11.43;2.58;;;8.40;99.90;;;;;;5023127;28;20211;-71
2024/02/19 02:27:59;;;;;;;9.73;2.35;;;8.40;99.90;;;;;;5008884;28;20219;-70
2024/02/19 02:30:25;;;;;;;16.60;2.92;;;8.40;99.90;;;;;;5021252;28;20276;-71
2024/02/19 02:32:55;;;;;;;10.65;2.20;;;8.40;99.90;;;;;;5021641;28;20192;-69
2024/02/19 02:35:22;;;;;;;14.15;2.78;;;8.40;99.90;;;;;;5020609;28;20226;-71
2024/02/19 02:37:48;;;;;;;14.98;2.83;;;8.40;99.90;;;;;;5022343;28;20204;-70
2024/02/19 02:40:14;;;;;;;20.95;2.83;;;8.40;99.90;;;;;;5021820;28;20199;-68
2024/02/19 02:42:39;;;;;;;15.15;2.03;;;8.40;99.90;;;;;;5021013;28;20247;-72
2024/02/19 02:45:06;;;;;;;18.20;2.30;;;8.40;99.90;;;;;;5022110;28;20188;-70
2024/02/19 02:47:31;;;;;;;15.15;2.55;;;8.50;99.90;;;;;;5022242;28;20237;-71
2024/02/19 02:49:57;;;;;;;14.55;2.47;;;8.40;99.90;;;;;;5021447;28;20267;-69
2024/02/19 02:52:23;;;;;;;24.50;2.70;;;8.50;99.90;;;;;;5022154;28;20195;-70
2024/02/19 02:54:48;;;;;;;14.65;2.30;;;8.40;99.90;;;;;;5022274;28;20270;-70
2024/02/19 02:57:14;;;;;;;10.27;1.98;;;8.40;99.90;;;;;;5021511;28;20192;-70
2024/02/19 02:59:40;;;;;;;15.43;2.10;;;8.40;99.90;;;;;;5021872;28;20219;-68
2024/02/19 03:02:05;;;;;;;10.30;2.13;;;8.40;99.90;;;;;;5021644;28;20206;-71
2024/02/19 03:04:32;;;;;;;17.02;1.85;;;8.40;99.90;;;;;;5022061;28;20199;-67
2024/02/19 03:06:57;;;;;;;11.65;1.67;;;8.40;99.90;;;;;;5020764;28;20278;-70
2024/02/19 03:09:23;;;;;;;10.05;1.70;;;8.50;99.90;;;;;;5022104;28;20278;-69
2024/02/19 03:11:49;;;;;;;13.32;2.10;;;8.50;99.90;;;;;;5021098;28;20234;-68
2024/02/19 03:14:16;;;;;;;10.00;1.85;;;8.50;99.90;;;;;;5021177;28;20184;-69
2024/02/19 03:16:42;;;;;;;12.13;1.92;;;8.60;99.90;;;;;;5021565;28;20705;-69
2024/02/19 03:19:09;;;;;;;16.88;2.38;;;8.60;99.90;;;;;;5020444;28;20188;-68
2024/02/19 03:21:40;;;;;;;12.88;1.73;;;8.60;99.90;;;;;;5035931;28;20257;-67
2024/02/19 03:24:09;;;;;;;16.20;2.10;;;8.60;99.90;;;;;;4989258;28;20242;-68
2024/02/19 03:26:35;;;;;;;8.10;1.67;;;8.60;99.90;;;;;;5021164;28;20994;-69
2024/02/19 03:29:01;;;;;;;8.35;1.75;;;8.60;99.90;;;;;;5020569;28;20231;-70
2024/02/19 03:31:27;;;;;;;17.48;2.00;;;8.60;99.90;;;;;;5021526;28;20265;-72
2024/02/19 03:33:53;;;;;;;16.75;2.55;;;8.70;99.90;;;;;;5020248;28;21227;-70
2024/02/19 03:36:18;;;;;;;11.27;2.00;;;8.70;99.90;;;;;;5020403;28;20196;-69
2024/02/19 03:38:44;;;;;;;14.65;2.15;;;8.70;99.90;;;;;;5020903;28;20667;-69
2024/02/19 03:41:12;;;;;;;16.15;1.90;;;8.70;99.90;;;;;;5020831;28;20206;-69
2024/02/19 03:43:37;;;;;;;11.77;1.77;;;8.70;99.90;;;;;;5021180;28;20200;-71
2024/02/19 03:46:05;;;;;;;7.95;1.52;;;8.80;99.90;;;;;;5020673;28;20191;-70
2024/02/19 03:48:34;;;;;;;9.85;1.88;;;8.80;99.90;;;;;;5020256;28;20225;-70
2024/02/19 03:51:00;;;;;;;12.43;2.03;;;8.80;99.90;;;;;;5020017;28;20739;-70
2024/02/19 03:53:25;;;;;;;14.32;1.98;;;8.80;99.90;;;;;;5021079;28;20559;-69
2024/02/19 03:55:51;;;;;;;16.33;2.08;;;8.80;99.90;;;;;;5021438;28;20184;-69
2024/02/19 03:58:17;;;;;;;9.05;1.75;;;8.80;99.90;;;;;;5026721;28;20194;-67
2024/02/19 04:00:43;;;;;;;19.75;1.77;;;8.80;99.90;;;;;;5006493;28;21285;-69
2024/02/19 04:03:09;;;;;;;10.30;2.22;;;8.80;99.90;;;;;;5020850;28;20690;-70
2024/02/19 04:05:34;;;;;;;12.05;2.17;;;8.80;99.90;;;;;;5027347;28;20203;-71
2024/02/19 04:08:00;;;;;;;14.48;2.08;;;8.80;99.90;;;;;;5020942;28;20863;-68
2024/02/19 04:10:26;;;;;;;22.58;2.30;;;8.70;99.90;;;;;;5020856;28;20188;-71
2024/02/19 04:12:51;;;;;;;13.88;2.60;;;8.70;99.90;;;;;;5021467;28;20192;-73
2024/02/19 04:15:17;;;;;;;20.92;2.97;;;8.70;99.90;;;;;;5020304;28;20295;-75
2024/02/19 04:17:45;;;;;;;24.55;3.75;;;8.60;99.90;;;;;;5021656;28;21052;-71
2024/02/19 04:20:11;;;;;;;29.65;4.03;;;8.70;99.90;;;;;;5019464;28;20295;-72
2024/02/19 04:22:37;;;;;;;21.92;2.78;;;8.60;99.90;;;;;;5020625;28;20253;-71
2024/02/19 04:25:03;;;;;;;26.55;3.35;;;8.60;99.90;;;;;;5039310;28;20277;-69
2024/02/19 04:27:29;;;;;;;21.45;3.50;;;8.60;99.90;;;;;;5039330;28;20221;-73
2024/02/19 04:29:54;;;;;;;21.55;4.07;;;8.60;99.90;;;;;;5024798;28;20230;-73
2024/02/19 04:32:20;;;;;;;24.55;3.25;;;8.60;99.90;;;;;;5024145;28;20278;-72
2024/02/19 04:34:46;;;;;;;22.33;3.08;;;8.60;99.90;;;;;;5023159;28;20196;-73
2024/02/19 04:37:11;;;;;;;27.67;3.53;;;8.60;99.90;;;;;;5023815;28;20192;-73
2024/02/19 04:39:37;;;;;;;16.95;3.05;;;8.50;99.90;;;;;;5023805;28;20183;-71
2024/02/19 04:42:03;;;;;;;25.63;3.92;;;8.60;99.90;;;;;;5023531;28;20238;-75
2024/02/19 04:44:29;;;;;;;20.85;2.92;;;8.60;99.90;;;;;;5024359;28;20188;-73
2024/02/19 04:46:56;;;;;;;24.95;3.38;;;8.60;99.90;;;;;;5024191;28;20241;-71
2024/02/19 04:49:21;;;;;;;37.50;4.05;;;8.60;99.90;;;;;;5009669;28;20275;-74
2024/02/19 04:51:47;;;;;;;21.75;3.42;;;8.60;99.90;;;;;;5023690;28;20343;-75
2024/02/19 04:54:13;;;;;;;22.63;3.42;;;8.60;99.90;;;;;;5024292;28;20303;-72
2024/02/19 04:56:38;;;;;;;21.95;3.85;;;8.60;99.90;;;;;;5023685;28;20196;-72
2024/02/19 04:59:04;;;;;;;24.60;3.55;;;8.60;99.90;;;;;;5039209;28;20238;-72
2024/02/19 05:01:31;;;;;;;24.13;4.00;;;8.60;99.90;;;;;;5024168;28;20246;-72
2024/02/19 05:03:57;;;;;;;30.48;3.67;;;8.60;99.90;;;;;;5023313;28;20262;-74
2024/02/19 05:06:24;;;;;;;25.00;3.42;;;8.60;99.90;;;;;;5021554;28;20713;-72
2024/02/19 05:08:50;;;;;;;29.30;4.00;;;8.60;99.90;;;;;;5023415;28;20227;-73
2024/02/19 05:11:16;;;;;;;28.42;4.03;;;8.60;99.90;;;;;;5011604;28;20672;-74
2024/02/19 05:13:42;;;;;;;28.77;4.07;;;8.60;99.90;;;;;;5022142;28;20550;-76
2024/02/19 05:16:09;;;;;;;31.25;4.47;;;8.60;99.90;;;;;;5024289;28;20188;-72
2024/02/19 05:18:35;;;;;;;36.38;4.05;;;8.60;99.90;;;;;;5022907;28;20196;-72
2024/02/19 05:21:02;;;;;;;31.45;3.83;;;8.70;99.90;;;;;;5022854;28;20184;-74
2024/02/19 05:23:32;;;;;;;32.40;4.68;;;8.70;99.90;;;;;;5023014;28;20249;-70
2024/02/19 05:25:59;;;;;;;31.73;4.80;;;8.60;99.90;;;;;;5024206;28;20192;-71
2024/02/19 05:28:24;;;;;;;40.47;4.93;;;8.60;99.90;;;;;;5037754;28;20302;-72
2024/02/19 05:30:50;;;;;;;33.42;4.53;;;8.70;99.90;;;;;;5022167;28;20821;-72
2024/02/19 05:33:18;;;;;;;31.23;5.38;;;8.70;99.90;;;;;;5023348;28;20223;-70
2024/02/19 05:35:47;;;;;;;32.60;4.95;;;8.70;99.90;;;;;;5022074;28;20644;-71
2024/02/19 05:38:13;;;;;;;36.85;4.40;;;8.70;99.90;;;;;;5023746;28;20196;-71
2024/02/19 05:40:39;;;;;;;39.92;5.28;;;8.70;99.90;;;;;;5022876;28;20195;-73
2024/02/19 05:43:06;;;;;;;33.95;5.72;;;8.70;99.90;;;;;;5023186;28;20718;-71
2024/02/19 05:45:32;;;;;;;28.48;4.38;;;8.70;99.90;;;;;;5037331;28;20226;-73
2024/02/19 05:47:57;;;;;;;34.75;5.53;;;8.70;99.90;;;;;;5021921;28;20297;-71
2024/02/19 05:50:24;;;;;;;36.88;4.80;;;8.80;99.90;;;;;;5023390;28;20179;-71
2024/02/19 05:52:50;;;;;;;36.28;4.85;;;8.80;99.90;;;;;;5036937;28;20188;-71
2024/02/19 05:55:15;;;;;;;26.50;4.57;;;8.80;99.90;;;;;;5028065;28;20646;-69
2024/02/19 05:57:41;;;;;;;38.58;5.22;;;8.80;99.90;;;;;;5022420;28;20192;-69
2024/02/19 06:00:13;;;;;;;37.58;4.85;;;8.80;99.90;;;;;;5020125;28;20783;-69
2024/02/19 06:02:42;;;;;;;32.58;4.90;;;8.80;99.90;;;;;;5022189;28;20262;-70
2024/02/19 06:05:09;;;;;;;41.50;5.03;;;8.80;99.90;;;;;;5021905;28;20211;-70
2024/02/19 06:07:35;;;;;;;35.95;5.32;;;8.90;99.90;;;;;;5021885;28;20200;-69
2024/02/19 06:10:04;;;;;;;43.00;5.03;;;8.90;99.90;;;;;;5022428;28;20224;-70
2024/02/19 06:12:30;;;;;;;40.17;5.50;;;8.90;99.90;;;;;;5010246;28;20196;-70
2024/02/19 06:14:56;;;;;;;34.72;5.45;;;8.90;99.90;;;;;;5021250;28;20248;-70
2024/02/19 06:17:22;;;;;;;34.33;5.22;;;8.90;99.90;;;;;;5022638;28;20207;-69
2024/02/19 06:19:47;;;;;;;35.33;6.10;;;8.90;99.90;;;;;;5020915;28;20214;-70
2024/02/19 06:22:14;;;;;;;37.80;5.22;;;8.90;99.90;;;;;;5022345;28;20200;-71
2024/02/19 06:24:40;;;;;;;31.00;5.20;;;8.90;99.90;;;;;;5015259;28;20223;-72
2024/02/19 06:27:09;;;;;;;37.70;5.78;;;8.90;99.90;;;;;;5020514;28;20188;-72
2024/02/19 06:29:34;;;;;;;39.10;5.57;;;9.00;99.90;;;;;;5022322;28;20606;-71
2024/02/19 06:32:00;;;;;;;33.17;6.05;;;9.00;99.90;;;;;;5021419;28;20180;-72
2024/02/19 06:34:31;;;;;;;41.25;5.47;;;9.00;99.90;;;;;;5022370;28;21281;-71
2024/02/19 06:36:56;;;;;;;37.80;5.60;;;9.00;99.90;;;;;;5020993;28;20192;-71
2024/02/19 06:39:22;;;;;;;30.38;4.97;;;9.00;99.90;;;;;;5019655;28;20639;-71
2024/02/19 06:41:48;;;;;;;33.40;5.55;;;9.00;99.90;;;;;;5021846;28;20222;-72
2024/02/19 06:44:13;;;;;;;37.28;5.93;;;9.10;99.90;;;;;;5020660;28;20200;-69
2024/02/19 06:46:39;;;;;;;41.13;5.57;;;9.10;99.90;;;;;;5021496;28;20303;-74
2024/02/19 06:49:05;;;;;;;47.08;7.30;;;9.10;99.90;;;;;;5019349;28;20226;-74
2024/02/19 06:51:31;;;;;;;35.10;6.28;;;9.10;99.90;;;;;;5022692;28;21237;-69
2024/02/19 06:53:56;;;;;;;38.85;6.60;;;9.10;99.90;;;;;;5021933;28;20199;-69
2024/02/19 06:56:22;;;;;;;31.92;6.13;;;9.10;99.90;;;;;;5011070;28;20192;-68
2024/02/19 06:58:48;;;;;;;33.05;6.22;;;9.20;99.90;;;;;;4996164;28;20306;-71
2024/02/19 07:01:14;;;;;;;30.67;6.88;;;9.20;99.90;;;;;;5020325;28;20249;-71
2024/02/19 07:03:42;;;;;;;36.45;7.28;;;9.20;99.90;;;;;;5020497;28;20233;-70
2024/02/19 07:06:07;;;;;;;31.77;6.82;;;9.20;99.90;;;;;;5022166;28;20191;-68
2024/02/19 07:08:33;;;;;;;33.88;7.20;;;9.20;99.90;;;;;;5021458;28;20221;-73
2024/02/19 07:10:59;;;;;;;45.22;7.57;;;9.20;99.90;;;;;;5022370;28;20594;-72
2024/02/19 07:13:25;;;;;;;44.55;7.93;;;9.30;99.90;;;;;;5022188;28;20683;-73
2024/02/19 07:15:50;;;;;;;38.65;7.13;;;9.30;99.90;;;;;;5018051;28;20191;-74
2024/02/19 07:18:16;;;;;;;39.72;8.10;;;9.30;99.90;;;;;;5036557;28;20184;-74
2024/02/19 07:20:42;;;;;;;35.00;7.70;;;9.30;99.90;;;;;;5019984;28;20266;-74
2024/02/19 07:23:07;;;;;;;37.97;7.70;;;9.40;99.90;;;;;;5036705;28;20192;-74
2024/02/19 07:25:33;;;;;;;48.45;8.60;;;9.40;99.90;;;;;;5021739;28;20187;-74
2024/02/19 07:27:59;;;;;;;39.17;7.93;;;9.40;99.90;;;;;;5009326;28;20300;-71
2024/02/19 07:30:25;;;;;;;31.35;7.82;;;9.40;99.90;;;;;;5020550;28;20234;-70
2024/02/19 07:32:51;;;;;;;37.03;8.05;;;9.40;99.90;;;;;;5036155;28;20196;-68
2024/02/19 07:35:16;;;;;;;34.05;7.35;;;9.50;99.90;;;;;;5021606;28;20188;-70
2024/02/19 07:37:42;;;;;;;42.45;7.35;;;9.50;99.90;;;;;;5021343;28;20200;-71
2024/02/19 07:40:09;;;;;;;38.17;7.18;;;9.50;99.90;;;;;;5021231;28;20321;-72
2024/02/19 07:42:36;;;;;;;36.20;7.72;;;9.60;99.90;;;;;;5019626;28;20207;-68
2024/02/19 07:45:05;;;;;;;33.60;6.60;;;9.60;99.90;;;;;;5021556;28;20245;-72
2024/02/19 07:47:31;;;;;;;32.08;6.78;;;9.70;99.90;;;;;;5007798;28;20620;-70
2024/02/19 07:49:56;;;;;;;33.90;7.25;;;9.60;99.90;;;;;;5021263;28;20207;-68
2024/02/19 07:52:22;;;;;;;26.83;6.18;;;9.70;99.90;;;;;;5008596;28;20199;-69
2024/02/19 07:54:48;;;;;;;32.05;7.15;;;9.70;99.90;;;;;;5020733;28;20691;-71
2024/02/19 07:57:14;;;;;;;30.38;6.13;;;9.70;99.90;;;;;;5021139;28;20226;-68
2024/02/19 07:59:40;;;;;;;35.78;6.38;;;9.70;99.90;;;;;;5018625;28;20195;-70
2024/02/19 08:02:06;;;;;;;35.13;6.10;;;9.80;99.90;;;;;;5009454;28;20735;-69
2024/02/19 08:04:32;;;;;;;28.75;6.28;;;9.80;99.90;;;;;;5006295;28;20624;-69
2024/02/19 08:06:58;;;;;;;24.70;5.95;;;9.90;99.90;;;;;;5021136;28;20200;-69
2024/02/19 08:09:24;;;;;;;28.50;5.70;;;9.90;99.90;;;;;;5020269;28;20320;-69
2024/02/19 08:11:51;;;;;;;32.08;5.60;;;9.90;99.90;;;;;;5019372;28;20211;-70
2024/02/19 08:14:18;;;;;;;24.00;5.38;;;9.90;99.90;;;;;;5020438;28;20194;-69
2024/02/19 08:16:48;;;;;;;28.88;5.25;;;10.00;99.90;;;;;;5019930;28;20197;-69
2024/02/19 08:19:14;;;;;;;28.15;5.50;;;10.00;99.90;;;;;;5019931;28;20644;-68
2024/02/19 08:21:41;;;;;;;23.35;5.05;;;10.00;99.90;;;;;;5019851;28;20191;-70
2024/02/19 08:24:07;;;;;;;27.83;5.25;;;10.00;99.90;;;;;;5021281;28;20249;-68
2024/02/19 08:26:32;;;;;;;25.10;5.45;;;10.10;99.90;;;;;;5019237;28;20663;-68
2024/02/19 08:28:59;;;;;;;35.78;7.53;;;10.10;99.90;;;;;;5019706;28;20231;-69
2024/02/19 08:31:27;;;;;;;26.50;5.50;;;10.10;99.90;;;;;;5026353;28;20277;-69
2024/02/19 08:33:56;;;;;;;26.23;4.80;;;10.20;99.90;;;;;;5019473;28;20183;-68
2024/02/19 08:36:22;;;;;;;26.45;4.78;;;10.30;99.90;;;;;;5020506;28;20300;-69
2024/02/19 08:38:55;;;;;;;27.55;5.45;;;10.30;99.90;;;;;;5004633;28;21297;-71
2024/02/19 08:41:21;;;;;;;24.00;5.47;;;10.40;99.90;;;;;;5019585;28;21177;-68
2024/02/19 08:43:47;;;;;;;25.00;5.00;;;10.50;99.90;;;;;;5007976;28;20200;-68
2024/02/19 08:46:15;;;;;;;26.88;5.03;;;10.50;99.90;;;;;;5019698;28;20238;-71
2024/02/19 08:48:40;;;;;;;21.77;5.15;;;10.60;99.90;;;;;;5019242;28;20219;-70
2024/02/19 08:51:06;;;;;;;25.38;5.45;;;10.60;99.90;;;;;;5019996;28;20184;-71
2024/02/19 08:53:33;;;;;;;26.60;4.88;;;10.60;99.90;;;;;;5034807;28;20188;-69
2024/02/19 08:55:59;;;;;;;28.38;5.88;;;10.60;99.90;;;;;;5019819;28;20192;-70
2024/02/19 08:58:25;;;;;;;28.10;5.78;;;10.70;99.90;;;;;;5034269;28;20261;-70
2024/02/19 09:00:51;;;;;;;28.55;5.28;;;10.70;99.90;;;;;;5019710;28;20188;-69
2024/02/19 09:03:17;;;;;;;22.42;4.97;;;10.70;99.90;;;;;;5035010;28;20207;-70
2024/02/19 09:05:43;;;;;;;31.33;6.32;;;10.80;99.90;;;;;;5017476;28;20207;-69
2024/02/19 09:08:10;;;;;;;20.83;5.60;;;10.90;99.90;;;;;;5018549;28;20235;-71
2024/02/19 09:10:36;;;;;;;19.65;5.32;;;10.90;99.90;;;;;;5020870;28;20570;-69
2024/02/19 09:13:02;;;;;;;27.70;5.50;;;10.90;99.90;;;;;;5021341;28;20196;-71
2024/02/19 09:15:28;;;;;;;24.27;5.60;;;11.00;99.90;;;;;;5023014;28;20306;-71
2024/02/19 09:17:54;;;;;;;26.60;5.00;;;11.00;99.90;;;;;;5022007;28;20207;-71
2024/02/19 09:20:19;;;;;;;21.17;5.07;;;11.10;99.90;;;;;;5022252;28;20204;-69
2024/02/19 09:22:45;;;;;;;20.08;5.25;;;11.10;99.90;;;;;;5021691;28;20199;-69
2024/02/19 09:25:13;;;;;;;22.40;4.80;;;11.20;99.90;;;;;;5022159;28;20212;-70
2024/02/19 09:27:39;;;;;;;20.67;4.90;;;11.30;99.90;;;;;;5022024;28;20215;-68
2024/02/19 09:30:05;;;;;;;20.33;5.15;;;11.30;99.90;;;;;;5021684;28;20226;-68
2024/02/19 09:32:31;;;;;;;21.52;5.32;;;11.40;99.90;;;;;;5024229;28;20192;-69
2024/02/19 09:34:57;;;;;;;22.55;5.47;;;11.50;99.90;;;;;;5022223;28;20203;-69
2024/02/19 09:37:25;;;;;;;23.75;5.88;;;11.50;99.90;;;;;;5022651;28;20196;-71
2024/02/19 09:39:58;;;;;;;24.83;5.60;;;11.40;99.90;;;;;;5022799;28;20192;-69
2024/02/19 09:42:26;;;;;;;21.25;4.88;;;11.40;99.90;;;;;;5022814;28;20552;-69
2024/02/19 09:44:52;;;;;;;24.70;5.65;;;11.40;99.90;;;;;;5021202;28;20176;-70
2024/02/19 09:47:20;;;;;;;26.52;5.50;;;11.30;99.90;;;;;;5020811;28;20712;-71
2024/02/19 09:49:49;;;;;;;23.50;6.55;;;11.30;99.90;;;;;;5027377;28;20199;-75
2024/02/19 09:52:25;;;;;;;27.85;6.78;;;11.20;99.90;;;;;;5021667;28;20196;-70
2024/02/19 09:54:52;;;;;;;29.83;7.75;;;11.10;99.90;;;;;;5023581;28;20184;-70
2024/02/19 09:57:21;;;;;;;23.92;7.38;;;11.10;99.90;;;;;;5022024;28;20720;-69
2024/02/19 09:59:50;;;;;;;24.73;7.30;;;11.10;99.90;;;;;;5022420;28;20193;-71
2024/02/19 10:02:19;;;;;;;28.73;7.90;;;11.10;99.90;;;;;;5021432;28;21158;-69
2024/02/19 10:04:48;;;;;;;28.63;8.73;;;11.20;99.90;;;;;;5022121;28;20196;-70
2024/02/19 10:07:18;;;;;;;25.55;9.02;;;11.20;99.90;;;;;;5021502;28;20234;-69
2024/02/19 10:09:46;;;;;;;25.63;9.02;;;11.20;99.90;;;;;;5021790;28;20196;-70
2024/02/19 10:12:12;;;;;;;32.22;9.77;;;11.20;99.90;;;;;;5022055;28;20242;-70
2024/02/19 10:14:37;;;;;;;34.15;8.95;;;11.20;99.90;;;;;;5011962;28;20589;-70
2024/02/19 10:17:05;;;;;;;27.42;9.15;;;11.10;99.90;;;;;;5021990;28;20600;-72
2024/02/19 10:19:31;;;;;;;22.88;8.45;;;11.10;99.90;;;;;;5021951;28;20211;-72
2024/02/19 10:21:57;;;;;;;28.73;9.00;;;11.10;99.90;;;;;;5036865;28;20188;-71
2024/02/19 10:24:23;;;;;;;28.92;9.00;;;11.10;99.90;;;;;;5022114;28;20196;-69
2024/02/19 10:26:50;;;;;;;23.10;8.25;;;11.10;99.90;;;;;;5011387;28;20188;-70
2024/02/19 10:29:17;;;;;;;28.92;8.70;;;11.10;99.90;;;;;;5022485;28;20211;-69
2024/02/19 10:31:43;;;;;;;27.23;8.70;;;11.20;99.90;;;;;;5020643;28;20303;-71
2024/02/19 10:34:10;;;;;;;22.67;8.20;;;11.20;99.90;;;;;;5021169;28;20778;-68
2024/02/19 10:36:36;;;;;;;26.92;8.55;;;11.30;99.90;;;;;;5020992;28;20682;-70
2024/02/19 10:39:05;;;;;;;22.42;7.85;;;11.30;99.90;;;;;;5020427;28;20191;-70
2024/02/19 10:41:33;;;;;;;28.65;8.77;;;11.40;99.90;;;;;;5020657;28;20192;-70
2024/02/19 10:44:00;;;;;;;23.92;7.90;;;11.50;99.90;;;;;;5019286;28;20247;-68
2024/02/19 10:46:26;;;;;;;20.30;8.68;;;11.50;99.90;;;;;;5019361;28;20224;-70
2024/02/19 10:48:52;;;;;;;24.80;7.85;;;11.50;99.90;;;;;;5019838;28;20234;-72
2024/02/19 10:51:19;;;;;;;28.77;8.85;;;11.60;99.90;;;;;;5022670;28;20187;-69
2024/02/19 10:53:46;;;;;;;23.42;8.10;;;11.50;99.90;;;;;;5020801;28;20203;-71
2024/02/19 10:56:19;;;;;;;33.45;8.52;;;11.50;99.90;;;;;;5021742;28;20188;-69
2024/02/19 10:58:59;;;;;;;27.67;8.50;;;11.50;99.90;;;;;;5020983;28;20196;-71
2024/02/19 11:01:49;;;;;;;23.42;8.60;;;11.50;99.90;;;;;;5005271;28;20231;-70
2024/02/19 11:04:15;;;;;;;26.15;8.30;;;11.40;99.90;;;;;;5021507;28;20250;-72
2024/02/19 11:06:54;;;;;;;29.77;8.90;;;11.40;99.90;;;;;;5021067;28;20183;-69
2024/02/19 11:09:21;;;;;;;29.58;9.20;;;11.30;99.90;;;;;;5019957;28;20219;-70
2024/02/19 11:11:58;;;;;;;23.88;9.00;;;11.30;99.90;;;;;;5020102;28;20206;-71
2024/02/19 11:14:27;;;;;;;24.45;9.15;;;11.20;99.90;;;;;;5021274;28;20219;-70
2024/02/19 11:16:53;;;;;;;31.15;9.32;;;11.20;99.90;;;;;;5021181;28;20191;-70
2024/02/19 11:19:20;;;;;;;26.13;8.48;;;11.20;99.90;;;;;;5035532;28;20279;-69
2024/02/19 11:21:46;;;;;;;22.80;8.15;;;11.30;99.90;;;;;;5020641;28;20204;-71
2024/02/19 11:24:13;;;;;;;23.05;7.70;;;11.30;99.90;;;;;;5007713;28;20210;-73
2024/02/19 11:26:43;;;;;;;20.23;8.05;;;11.30;99.90;;;;;;5020205;28;20283;-72
2024/02/19 11:29:13;;;;;;;19.42;8.35;;;11.30;99.90;;;;;;5020006;28;20218;-72
2024/02/19 11:31:39;;;;;;;27.67;8.68;;;11.30;99.90;;;;;;5019730;28;20262;-70
2024/02/19 11:34:17;;;;;;;27.65;8.43;;;11.30;99.90;;;;;;5005833;28;20223;-72
2024/02/19 11:36:44;;;;;;;30.48;8.95;;;11.30;99.90;;;;;;5021312;28;20711;-72
2024/02/19 11:39:09;;;;;;;26.30;8.60;;;11.30;99.90;;;;;;5010991;28;20192;-70
2024/02/19 11:41:36;;;;;;;23.60;7.82;;;11.40;99.90;;;;;;5036140;28;20259;-71
2024/02/19 11:44:03;;;;;;;28.77;8.10;;;11.40;99.90;;;;;;5020971;28;20594;-69
2024/02/19 11:46:29;;;;;;;27.48;8.52;;;11.40;99.90;;;;;;5019735;28;20223;-71
2024/02/19 11:48:55;;;;;;;26.80;8.32;;;11.50;99.90;;;;;;5020845;28;20212;-69
2024/02/19 11:51:21;;;;;;;24.60;7.95;;;11.50;99.90;;;;;;5035297;28;20206;-71
2024/02/19 11:53:48;;;;;;;22.50;8.00;;;11.50;99.90;;;;;;5018631;28;20184;-71
2024/02/19 11:56:18;;;;;;;24.75;8.48;;;11.60;99.90;;;;;;5019991;28;20322;-72
2024/02/19 11:58:47;;;;;;;25.92;8.60;;;11.60;99.90;;;;;;5034741;28;20325;-70
2024/02/19 12:01:17;;;;;;;23.20;7.78;;;11.50;99.90;;;;;;5018790;28;20272;-69
2024/02/19 12:03:43;;;;;;;23.98;7.55;;;11.50;99.90;;;;;;5034875;28;20277;-71
2024/02/19 12:06:09;;;;;;;21.60;8.15;;;11.50;99.90;;;;;;5018766;28;20642;-71
2024/02/19 12:08:35;;;;;;;22.33;7.47;;;11.50;99.90;;;;;;5036092;28;20211;-71
2024/02/19 12:11:00;;;;;;;24.73;8.20;;;11.40;99.90;;;;;;5019969;28;20187;-68
2024/02/19 12:13:26;;;;;;;28.85;8.70;;;11.40;99.90;;;;;;5019901;28;20562;-70
2024/02/19 12:15:52;;;;;;;25.17;9.00;;;11.40;99.90;;;;;;5031005;28;20192;-70
2024/02/19 12:18:18;;;;;;;28.67;8.32;;;11.30;99.90;;;;;;5020096;28;20198;-70
2024/02/19 12:20:44;;;;;;;27.33;8.10;;;11.40;99.90;;;;;;5018886;28;21454;-71
2024/02/19 12:23:10;;;;;;;25.63;8.10;;;11.40;99.90;;;;;;5021093;28;20243;-68
2024/02/19 12:25:36;;;;;;;19.02;8.27;;;11.40;99.90;;;;;;5018530;28;20250;-68
2024/02/19 12:28:02;;;;;;;25.67;8.40;;;11.40;99.90;;;;;;5019905;28;20742;-70
2024/02/19 12:30:28;;;;;;;26.40;8.50;;;11.40;99.90;;;;;;5020961;28;20196;-70
2024/02/19 12:32:54;;;;;;;21.38;7.97;;;11.40;99.90;;;;;;5005537;28;20232;-68
2024/02/19 12:35:19;;;;;;;23.42;7.57;;;11.40;99.90;;;;;;5018869;28;20663;-70
2024/02/19 12:37:46;;;;;;;18.58;7.43;;;11.30;99.90;;;;;;5019867;28;20294;-69
2024/02/19 12:40:14;;;;;;;25.52;7.70;;;11.30;99.90;;;;;;5020695;28;20219;-70